createdAt,value
2022-11-27T00:01:35.673Z,0.90
2022-11-27T00:04:05.565Z,0.90
2022-11-27T00:06:35.140Z,0.90
2022-11-27T00:09:08.259Z,1.00
2022-11-27T00:11:36.083Z,0.80
2022-11-27T00:14:03.881Z,1.10
2022-11-27T00:16:31.746Z,1.10
2022-11-27T00:18:59.533Z,0.90
2022-11-27T00:21:33.613Z,1.00
2022-11-27T00:24:04.594Z,1.00
2022-11-27T00:26:37.602Z,1.00
2022-11-27T00:29:07.480Z,1.10
2022-11-27T00:31:37.582Z,1.40
2022-11-27T00:34:08.918Z,1.40
2022-11-27T00:36:38.268Z,1.40
2022-11-27T00:39:06.868Z,1.30
2022-11-27T00:41:34.843Z,1.50
2022-11-27T00:44:02.698Z,1.50
2022-11-27T00:46:33.210Z,1.40
2022-11-27T00:49:04.429Z,1.70
2022-11-27T00:51:32.606Z,1.20
2022-11-27T00:54:00.693Z,1.40
2022-11-27T00:56:33.295Z,1.30
2022-11-27T00:59:01.833Z,1.10
2022-11-27T01:01:36.723Z,1.50
2022-11-27T01:04:07.613Z,1.10
2022-11-27T01:06:35.300Z,1.10
2022-11-27T01:09:04.007Z,1.30
2022-11-27T01:11:34.544Z,1.30
2022-11-27T01:14:15.701Z,1.60
2022-11-27T01:16:44.163Z,1.40
2022-11-27T01:19:15.298Z,1.20
2022-11-27T01:21:43.952Z,1.20
2022-11-27T01:24:15.297Z,1.60
2022-11-27T01:26:44.497Z,1.30
2022-11-27T01:29:12.810Z,1.30
2022-11-27T01:31:40.667Z,1.40
2022-11-27T01:34:14.612Z,1.00
2022-11-27T01:36:43.096Z,1.20
2022-11-27T01:39:17.270Z,1.30
2022-11-27T01:41:47.572Z,1.10
2022-11-27T01:44:24.714Z,1.00
2022-11-27T01:47:05.193Z,1.20
2022-11-27T01:49:40.804Z,1.10
2022-11-27T01:52:15.521Z,1.00
2022-11-27T01:55:34.090Z,1.20
2022-11-27T01:58:13.491Z,1.30
2022-11-27T02:00:41.749Z,1.30
2022-11-27T02:03:09.852Z,0.80
2022-11-27T02:05:37.791Z,1.50
2022-11-27T02:08:13.888Z,1.40
2022-11-27T02:10:49.572Z,1.30
2022-11-27T02:13:30.485Z,1.40
2022-11-27T02:16:28.209Z,1.20
2022-11-27T02:19:14.136Z,1.10
2022-11-27T02:22:03.992Z,1.20
2022-11-27T02:25:28.043Z,0.90
2022-11-27T02:28:12.017Z,0.90
2022-11-27T02:30:51.714Z,1.40
2022-11-27T02:33:22.094Z,1.00
2022-11-27T02:36:04.057Z,1.10
2022-11-27T02:38:42.380Z,1.10
2022-11-27T02:41:19.279Z,1.20
2022-11-27T02:43:51.818Z,1.20
2022-11-27T02:46:21.457Z,1.10
2022-11-27T02:48:55.421Z,1.10
2022-11-27T02:51:37.243Z,1.00
2022-11-27T02:54:10.082Z,1.10
2022-11-27T02:56:41.651Z,1.40
2022-11-27T02:59:14.471Z,1.30
2022-11-27T03:01:51.922Z,1.30
2022-11-27T03:04:32.264Z,1.00
2022-11-27T03:07:06.944Z,1.30
2022-11-27T03:09:42.454Z,1.10
2022-11-27T03:12:12.397Z,1.30
2022-11-27T03:14:42.795Z,1.40
2022-11-27T03:17:39.952Z,1.40
2022-11-27T03:20:21.879Z,1.70
2022-11-27T03:22:49.784Z,1.50
2022-11-27T03:25:17.577Z,1.70
2022-11-27T03:27:55.239Z,1.60
2022-11-27T03:30:22.950Z,1.60
2022-11-27T03:32:50.831Z,1.60
2022-11-27T03:35:25.029Z,2.10
2022-11-27T03:37:54.435Z,1.80
2022-11-27T03:40:39.333Z,1.70
2022-11-27T03:43:18.725Z,1.80
2022-11-27T03:46:27.991Z,1.60
2022-11-27T03:49:27.508Z,2.70
2022-11-27T03:52:39.018Z,1.70
2022-11-27T03:55:28.618Z,1.90
2022-11-27T03:58:09.386Z,1.70
2022-11-27T04:00:43.249Z,1.70
2022-11-27T04:03:13.364Z,1.80
2022-11-27T04:05:41.093Z,2.20
2022-11-27T04:08:08.743Z,1.60
2022-11-27T04:10:36.445Z,1.60
2022-11-27T04:13:04.382Z,1.50
2022-11-27T04:15:32.178Z,2.10
2022-11-27T04:17:59.865Z,1.80
2022-11-27T04:20:29.422Z,1.70
2022-11-27T04:22:57.487Z,1.80
2022-11-27T04:25:25.577Z,1.70
2022-11-27T04:27:53.261Z,1.90
2022-11-27T04:30:21.047Z,2.00
2022-11-27T04:32:48.897Z,1.90
2022-11-27T04:35:16.729Z,1.50
2022-11-27T04:37:44.444Z,2.40
2022-11-27T04:40:13.010Z,1.90
2022-11-27T04:42:40.738Z,1.80
2022-11-27T04:45:09.422Z,2.00
2022-11-27T04:47:37.043Z,2.30
2022-11-27T04:50:05.716Z,2.40
2022-11-27T04:52:33.448Z,2.50
2022-11-27T04:55:01.175Z,2.30
2022-11-27T04:57:28.900Z,2.20
2022-11-27T04:59:56.617Z,2.70
2022-11-27T05:02:24.600Z,2.40
2022-11-27T05:04:52.418Z,2.80
2022-11-27T05:07:20.458Z,2.60
2022-11-27T05:09:48.371Z,2.70
2022-11-27T05:12:16.309Z,2.50
2022-11-27T05:14:44.013Z,2.70
2022-11-27T05:17:11.802Z,2.70
2022-11-27T05:19:39.444Z,2.30
2022-11-27T05:22:07.138Z,2.50
2022-11-27T05:24:34.868Z,2.70
2022-11-27T05:27:02.588Z,2.30
2022-11-27T05:29:30.293Z,2.50
2022-11-27T05:31:58.229Z,2.40
2022-11-27T05:34:25.971Z,2.70
2022-11-27T05:36:53.664Z,2.20
2022-11-27T05:39:22.144Z,2.30
2022-11-27T05:41:49.843Z,2.50
2022-11-27T05:44:17.570Z,2.30
2022-11-27T05:46:45.622Z,2.10
2022-11-27T05:49:15.942Z,2.20
2022-11-27T05:51:50.421Z,2.40
2022-11-27T05:54:19.005Z,2.40
2022-11-27T05:56:46.909Z,2.20
2022-11-27T05:59:15.412Z,2.00
2022-11-27T06:01:43.553Z,2.30
2022-11-27T06:04:11.223Z,2.40
2022-11-27T06:06:39.196Z,2.70
2022-11-27T06:09:12.183Z,2.40
2022-11-27T06:11:42.123Z,2.20
2022-11-27T06:14:11.206Z,2.20
2022-11-27T06:16:38.995Z,2.20
2022-11-27T06:19:07.901Z,2.00
2022-11-27T06:21:36.106Z,2.30
2022-11-27T06:24:04.206Z,1.90
2022-11-27T06:26:33.389Z,1.90
2022-11-27T06:29:01.743Z,1.90
2022-11-27T06:31:32.979Z,1.60
2022-11-27T06:34:01.492Z,1.70
2022-11-27T06:36:36.881Z,1.70
2022-11-27T06:39:07.205Z,1.60
2022-11-27T06:41:34.851Z,1.80
2022-11-27T06:44:03.688Z,2.00
2022-11-27T06:46:31.453Z,2.00
2022-11-27T06:48:59.403Z,2.10
2022-11-27T06:51:30.999Z,1.80
2022-11-27T06:54:02.238Z,1.90
2022-11-27T06:56:32.061Z,2.00
2022-11-27T06:59:02.001Z,2.20
2022-11-27T07:01:31.839Z,2.40
2022-11-27T07:03:59.755Z,2.40
2022-11-27T07:06:27.913Z,3.60
2022-11-27T07:08:56.194Z,3.40
2022-11-27T07:11:28.849Z,3.20
2022-11-27T07:14:00.362Z,3.40
2022-11-27T07:16:32.625Z,3.50
2022-11-27T07:19:04.873Z,3.80
2022-11-27T07:21:33.951Z,3.70
2022-11-27T07:24:01.783Z,3.70
2022-11-27T07:26:30.383Z,4.40
2022-11-27T07:28:58.432Z,3.90
2022-11-27T07:31:30.112Z,3.80
2022-11-27T07:33:58.669Z,3.40
2022-11-27T07:36:30.442Z,3.80
2022-11-27T07:38:58.584Z,4.40
2022-11-27T07:41:32.207Z,4.30
2022-11-27T07:44:03.601Z,4.40
2022-11-27T07:46:31.506Z,4.40
2022-11-27T07:49:00.493Z,4.70
2022-11-27T07:51:29.525Z,4.30
2022-11-27T07:53:57.388Z,4.00
2022-11-27T07:56:25.117Z,4.00
2022-11-27T07:58:52.810Z,4.20
2022-11-27T08:01:21.577Z,4.60
2022-11-27T08:03:50.089Z,4.30
2022-11-27T08:06:24.814Z,3.70
2022-11-27T08:08:55.921Z,4.00
2022-11-27T08:11:32.846Z,4.20
2022-11-27T08:14:04.717Z,4.40
2022-11-27T08:16:34.322Z,5.00
2022-11-27T08:19:02.776Z,4.30
2022-11-27T08:21:30.691Z,4.60
2022-11-27T08:23:58.399Z,4.00
2022-11-27T08:26:27.744Z,3.90
2022-11-27T08:28:57.433Z,3.40
2022-11-27T08:31:25.256Z,3.00
2022-11-27T08:33:53.171Z,3.20
2022-11-27T08:36:26.663Z,3.40
2022-11-27T08:38:55.756Z,3.00
2022-11-27T08:41:23.472Z,3.30
2022-11-27T08:43:51.400Z,3.30
2022-11-27T08:46:19.242Z,2.80
2022-11-27T08:48:47.048Z,3.10
2022-11-27T08:51:16.217Z,3.30
2022-11-27T08:53:45.600Z,3.30
2022-11-27T08:56:20.542Z,2.70
2022-11-27T08:58:48.970Z,2.80
2022-11-27T09:01:21.587Z,2.90
2022-11-27T09:03:49.991Z,3.00
2022-11-27T09:06:21.745Z,2.90
2022-11-27T09:08:50.473Z,2.70
2022-11-27T09:11:20.358Z,3.10
2022-11-27T09:13:49.146Z,2.90
2022-11-27T09:16:21.128Z,5.00
2022-11-27T09:18:51.884Z,6.20
2022-11-27T09:21:23.194Z,6.50
2022-11-27T09:23:59.952Z,6.10
2022-11-27T09:26:29.853Z,5.00
2022-11-27T09:28:59.226Z,3.30
2022-11-27T09:31:27.475Z,3.90
2022-11-27T09:33:55.405Z,3.60
2022-11-27T09:36:25.944Z,4.80
2022-11-27T09:38:54.581Z,5.30
2022-11-27T09:41:46.330Z,6.70
2022-11-27T09:44:39.730Z,6.00
2022-11-27T09:47:41.818Z,5.90
2022-11-27T09:50:34.032Z,5.50
2022-11-27T09:53:20.553Z,5.30
2022-11-27T09:55:53.140Z,5.10
2022-11-27T09:58:49.092Z,4.70
2022-11-27T10:01:34.866Z,4.80
2022-11-27T10:04:15.724Z,4.80
2022-11-27T10:07:35.741Z,4.10
2022-11-27T10:10:28.811Z,4.50
2022-11-27T10:13:33.124Z,4.10
2022-11-27T10:16:15.014Z,4.80
2022-11-27T10:18:57.319Z,5.50
2022-11-27T10:21:36.979Z,3.10
2022-11-27T10:24:27.653Z,3.30
2022-11-27T10:26:59.144Z,3.10
2022-11-27T10:29:45.719Z,2.60
2022-11-27T10:32:53.367Z,2.90
2022-11-27T10:35:24.437Z,4.00
2022-11-27T10:38:14.757Z,2.90
2022-11-27T10:41:03.793Z,3.50
2022-11-27T10:43:32.277Z,3.10
2022-11-27T10:46:14.833Z,2.80
2022-11-27T10:48:42.595Z,4.20
2022-11-27T10:51:17.971Z,3.50
2022-11-27T10:53:50.894Z,4.50
2022-11-27T10:56:33.917Z,3.10
2022-11-27T10:59:13.466Z,3.40
2022-11-27T11:01:53.403Z,3.60
2022-11-27T11:04:38.775Z,3.80
2022-11-27T11:07:28.539Z,3.30
2022-11-27T11:09:56.646Z,3.20
2022-11-27T11:12:24.508Z,2.70
2022-11-27T11:14:59.190Z,2.50
2022-11-27T11:17:37.149Z,3.10
2022-11-27T11:20:25.006Z,3.00
2022-11-27T11:22:52.809Z,2.70
2022-11-27T11:25:21.979Z,3.00
2022-11-27T11:27:52.556Z,3.00
2022-11-27T11:30:30.099Z,3.30
2022-11-27T11:33:03.670Z,3.40
2022-11-27T11:35:36.548Z,3.60
2022-11-27T11:38:16.709Z,3.10
2022-11-27T11:41:03.412Z,2.70
2022-11-27T11:43:35.678Z,3.50
2022-11-27T11:46:24.446Z,3.70
2022-11-27T11:48:54.129Z,3.70
2022-11-27T11:51:50.386Z,3.00
2022-11-27T11:54:30.897Z,3.40
2022-11-27T11:57:05.035Z,4.00
2022-11-27T12:00:12.961Z,3.70
2022-11-27T12:03:13.852Z,4.10
2022-11-27T12:06:21.330Z,3.30
2022-11-27T12:09:17.956Z,3.70
2022-11-27T12:12:12.173Z,3.40
2022-11-27T12:15:02.848Z,3.90
2022-11-27T12:17:52.193Z,3.90
2022-11-27T12:20:38.516Z,3.70
2022-11-27T12:23:49.390Z,4.00
2022-11-27T12:26:33.901Z,3.40
2022-11-27T12:29:32.137Z,4.30
2022-11-27T12:32:20.792Z,3.70
2022-11-27T12:35:06.399Z,3.30
2022-11-27T12:37:54.947Z,3.60
2022-11-27T12:40:56.112Z,3.60
2022-11-27T12:43:37.503Z,3.60
2022-11-27T12:46:31.360Z,3.50
2022-11-27T12:49:10.323Z,3.60
2022-11-27T12:51:46.401Z,4.50
2022-11-27T12:54:32.616Z,4.50
2022-11-27T12:57:07.964Z,3.50
2022-11-27T12:59:56.781Z,3.50
2022-11-27T13:02:46.649Z,3.20
2022-11-27T13:05:29.862Z,3.70
2022-11-27T13:08:10.956Z,5.90
2022-11-27T13:10:47.452Z,4.00
2022-11-27T13:13:40.402Z,3.60
2022-11-27T13:16:24.027Z,3.70
2022-11-27T13:19:01.269Z,3.60
2022-11-27T13:21:34.052Z,3.90
2022-11-27T13:24:03.114Z,4.80
2022-11-27T13:26:40.468Z,3.10
2022-11-27T13:29:32.857Z,3.40
2022-11-27T13:32:05.863Z,4.00
2022-11-27T13:34:43.586Z,3.70
2022-11-27T13:37:35.325Z,2.70
2022-11-27T13:40:20.889Z,2.60
2022-11-27T13:42:55.428Z,3.60
2022-11-27T13:45:28.199Z,3.60
2022-11-27T13:47:59.575Z,3.00
2022-11-27T13:53:04.446Z,3.40
2022-11-27T13:55:40.377Z,2.90
2022-11-27T13:58:08.246Z,2.40
2022-11-27T14:00:45.165Z,3.50
2022-11-27T14:03:29.576Z,3.70
2022-11-27T14:05:57.918Z,3.30
2022-11-27T14:08:35.235Z,4.70
2022-11-27T14:11:08.576Z,4.50
2022-11-27T14:13:42.095Z,2.70
2022-11-27T14:16:36.297Z,3.80
2022-11-27T14:19:30.623Z,3.30
2022-11-27T14:22:13.345Z,3.10
2022-11-27T14:24:46.596Z,3.00
2022-11-27T14:27:23.161Z,2.70
2022-11-27T14:29:52.233Z,2.80
2022-11-27T14:32:21.280Z,4.00
2022-11-27T14:34:49.274Z,3.50
2022-11-27T14:37:23.451Z,2.60
2022-11-27T14:39:51.585Z,3.30
2022-11-27T14:42:30.232Z,3.40
2022-11-27T14:45:15.984Z,4.40
2022-11-27T14:47:54.897Z,3.20
2022-11-27T14:50:23.084Z,3.30
2022-11-27T14:52:57.066Z,3.60
2022-11-27T14:55:31.578Z,3.80
2022-11-27T14:58:02.479Z,3.80
2022-11-27T15:00:34.268Z,5.30
2022-11-27T15:03:10.448Z,3.90
2022-11-27T15:05:39.142Z,4.00
2022-11-27T15:08:10.257Z,3.50
2022-11-27T15:10:41.156Z,3.40
2022-11-27T15:13:23.275Z,4.10
2022-11-27T15:16:03.464Z,3.50
2022-11-27T15:18:35.860Z,3.50
2022-11-27T15:21:11.801Z,3.60
2022-11-27T15:23:46.891Z,4.10
2022-11-27T15:26:30.280Z,3.80
2022-11-27T15:28:58.464Z,5.10
2022-11-27T15:31:35.433Z,3.30
2022-11-27T15:34:04.095Z,3.80
2022-11-27T15:36:40.504Z,4.10
2022-11-27T15:39:35.055Z,4.20
2022-11-27T15:42:08.520Z,4.30
2022-11-27T15:44:36.975Z,3.90
2022-11-27T15:47:07.031Z,5.10
2022-11-27T15:49:34.810Z,7.20
2022-11-27T15:52:02.517Z,7.70
2022-11-27T15:54:30.160Z,6.90
2022-11-27T15:56:57.832Z,7.00
2022-11-27T15:59:27.213Z,7.10
2022-11-27T16:01:56.073Z,6.00
2022-11-27T16:04:24.076Z,7.20
2022-11-27T16:06:51.795Z,6.60
2022-11-27T16:09:19.809Z,4.40
2022-11-27T16:11:47.912Z,4.60
2022-11-27T16:14:16.161Z,5.20
2022-11-27T16:16:44.034Z,5.00
2022-11-27T16:19:15.130Z,4.10
2022-11-27T16:21:43.420Z,5.30
2022-11-27T16:24:14.676Z,5.40
2022-11-27T16:26:42.769Z,7.00
2022-11-27T16:29:10.864Z,6.80
2022-11-27T16:31:40.450Z,7.30
2022-11-27T16:34:08.404Z,6.10
2022-11-27T16:36:43.731Z,5.10
2022-11-27T16:39:12.269Z,4.50
2022-11-27T16:41:40.419Z,3.80
2022-11-27T16:44:14.363Z,3.40
2022-11-27T16:46:44.453Z,3.90
2022-11-27T16:49:12.993Z,4.50
2022-11-27T16:51:41.854Z,4.40
2022-11-27T16:54:13.673Z,4.10
2022-11-27T16:59:14.593Z,3.20
2022-11-27T17:04:18.625Z,4.10
2022-11-27T17:06:48.983Z,6.10
2022-11-27T17:09:18.111Z,12.00
2022-11-27T17:11:50.665Z,9.30
2022-11-27T17:14:20.407Z,11.40
2022-11-27T17:16:49.516Z,13.10
2022-11-27T17:19:18.676Z,22.50
2022-11-27T17:21:46.568Z,14.90
2022-11-27T17:24:16.598Z,8.00
2022-11-27T17:26:48.216Z,8.30
2022-11-27T17:29:19.065Z,6.30
2022-11-27T17:31:47.444Z,7.10
2022-11-27T17:34:17.380Z,8.50
2022-11-27T17:36:45.918Z,6.80
2022-11-27T17:39:15.038Z,6.30
2022-11-27T17:41:45.051Z,7.00
2022-11-27T17:44:13.458Z,7.50
2022-11-27T17:46:41.848Z,15.60
2022-11-27T17:49:10.779Z,12.40
2022-11-27T17:51:41.188Z,10.70
2022-11-27T17:54:11.359Z,10.50
2022-11-27T17:56:39.664Z,9.20
2022-11-27T17:59:09.297Z,8.70
2022-11-27T18:01:37.553Z,6.50
2022-11-27T18:04:06.359Z,6.60
2022-11-27T18:06:35.880Z,7.30
2022-11-27T18:09:04.806Z,7.40
2022-11-27T18:11:36.306Z,6.50
2022-11-27T18:14:05.098Z,6.50
2022-11-27T18:16:37.685Z,6.60
2022-11-27T18:21:37.106Z,8.80
2022-11-27T18:24:23.530Z,7.40
2022-11-27T18:27:10.096Z,7.90
2022-11-27T18:29:42.655Z,9.10
2022-11-27T18:32:12.655Z,8.90
2022-11-27T18:34:42.345Z,8.70
2022-11-27T18:37:11.314Z,10.00
2022-11-27T18:39:40.415Z,8.10
2022-11-27T18:42:08.620Z,9.40
2022-11-27T18:44:41.315Z,8.90
2022-11-27T18:47:14.891Z,8.70
2022-11-27T18:49:44.899Z,7.80
2022-11-27T18:52:13.872Z,8.00
2022-11-27T18:54:42.003Z,9.40
2022-11-27T18:57:11.055Z,8.30
2022-11-27T18:59:42.549Z,9.40
2022-11-27T19:02:11.364Z,8.20
2022-11-27T19:04:39.678Z,8.50
2022-11-27T19:07:07.570Z,8.30
2022-11-27T19:09:35.289Z,7.70
2022-11-27T19:12:03.893Z,9.30
2022-11-27T19:14:33.568Z,10.60
2022-11-27T19:17:01.565Z,19.90
2022-11-27T19:22:20.925Z,12.10
2022-11-27T19:24:48.783Z,11.00
2022-11-27T19:27:16.570Z,9.90
2022-11-27T19:29:44.768Z,8.50
2022-11-27T19:32:13.110Z,9.10
2022-11-27T19:34:41.814Z,7.80
2022-11-27T19:37:09.982Z,8.30
2022-11-27T19:39:37.931Z,7.80
2022-11-27T19:42:06.224Z,7.90
2022-11-27T19:44:34.031Z,7.70
2022-11-27T19:47:02.092Z,7.60
2022-11-27T19:49:29.919Z,6.80
2022-11-27T19:51:58.482Z,6.70
2022-11-27T19:54:26.616Z,6.10
2022-11-27T19:56:55.170Z,7.00
2022-11-27T19:59:25.886Z,7.50
2022-11-27T20:01:54.894Z,8.50
2022-11-27T20:04:26.024Z,8.70
2022-11-27T20:06:53.733Z,8.10
2022-11-27T20:09:21.722Z,8.20
2022-11-27T20:11:49.376Z,9.50
2022-11-27T20:14:17.453Z,8.60
2022-11-27T20:16:45.453Z,8.50
2022-11-27T20:19:13.361Z,9.10
2022-11-27T20:21:42.522Z,10.60
2022-11-27T20:24:10.963Z,10.50
2022-11-27T20:26:42.591Z,12.60
2022-11-27T20:29:13.023Z,10.10
2022-11-27T20:31:44.482Z,10.20
2022-11-27T20:34:20.728Z,10.30
2022-11-27T20:36:49.149Z,10.20
2022-11-27T20:39:21.366Z,11.30
2022-11-27T20:41:51.717Z,9.60
2022-11-27T20:44:22.253Z,10.40
2022-11-27T20:46:51.156Z,10.90
2022-11-27T20:49:20.536Z,9.40
2022-11-27T20:51:51.392Z,9.90
2022-11-27T20:54:22.888Z,10.20
2022-11-27T20:56:51.225Z,9.00
2022-11-27T20:59:19.779Z,8.40
2022-11-27T21:01:49.181Z,10.60
2022-11-27T21:04:25.656Z,9.90
2022-11-27T21:06:54.027Z,10.70
2022-11-27T21:09:21.933Z,11.20
2022-11-27T21:11:49.866Z,10.70
2022-11-27T21:14:17.809Z,9.10
2022-11-27T21:16:49.679Z,10.30
2022-11-27T21:19:23.004Z,9.50
2022-11-27T21:21:52.952Z,10.20
2022-11-27T21:24:25.713Z,9.60
2022-11-27T21:26:53.617Z,10.10
2022-11-27T21:29:25.310Z,10.30
2022-11-27T21:31:55.141Z,8.80
2022-11-27T21:34:24.044Z,8.70
2022-11-27T21:36:51.801Z,9.30
2022-11-27T21:39:22.510Z,8.80
2022-11-27T21:41:54.143Z,8.20
2022-11-27T21:44:24.765Z,8.10
2022-11-27T21:46:52.555Z,8.70
2022-11-27T21:49:20.922Z,7.80
2022-11-27T21:51:53.618Z,7.80
2022-11-27T21:54:24.493Z,7.70
2022-11-27T21:56:52.850Z,8.90
2022-11-27T21:59:20.627Z,8.90
2022-11-27T22:01:48.452Z,10.30
2022-11-27T22:04:16.629Z,10.30
2022-11-27T22:06:45.229Z,11.30
2022-11-27T22:09:15.741Z,10.40
2022-11-27T22:11:46.455Z,10.10
2022-11-27T22:14:16.147Z,10.40
2022-11-27T22:16:46.446Z,9.60
2022-11-27T22:21:45.099Z,9.10
2022-11-27T22:24:18.811Z,8.70
2022-11-27T22:26:48.833Z,8.60
2022-11-27T22:29:16.765Z,8.60
2022-11-27T22:31:44.655Z,9.60
2022-11-27T22:34:12.349Z,8.90
2022-11-27T22:36:40.681Z,9.70
2022-11-27T22:39:09.136Z,9.30
2022-11-27T22:41:40.067Z,9.10
2022-11-27T22:44:20.788Z,9.50
2022-11-27T22:49:18.851Z,9.10
2022-11-27T22:51:47.273Z,9.50
2022-11-27T22:54:19.586Z,9.40
2022-11-27T22:56:47.317Z,9.70
2022-11-27T22:59:33.722Z,10.70
2022-11-27T23:02:05.055Z,9.20
2022-11-27T23:04:35.866Z,9.40
2022-11-27T23:07:05.940Z,9.40
2022-11-27T23:09:34.728Z,9.30
2022-11-27T23:12:02.466Z,8.30
2022-11-27T23:14:30.163Z,9.20
2022-11-27T23:16:58.505Z,8.50
2022-11-27T23:19:26.416Z,8.60
2022-11-27T23:21:54.409Z,9.10
2022-11-27T23:24:22.285Z,7.90
2022-11-27T23:26:50.112Z,8.90
2022-11-27T23:29:17.812Z,8.20
2022-11-27T23:31:45.540Z,8.90
2022-11-27T23:34:15.851Z,9.10
2022-11-27T23:36:43.827Z,7.70
2022-11-27T23:39:14.159Z,7.80
2022-11-27T23:41:42.850Z,6.90
2022-11-27T23:44:11.041Z,7.60
2022-11-27T23:46:38.776Z,6.20
2022-11-27T23:49:06.761Z,7.40
2022-11-27T23:51:34.591Z,7.60
2022-11-27T23:54:07.134Z,6.80
2022-11-27T23:56:36.328Z,7.60
2022-11-27T23:59:04.572Z,7.90
